createdAt,value
2022-08-30T00:00:29.333Z,101305.75
2022-08-30T00:01:05.576Z,101310.91
2022-08-30T00:01:30.257Z,101308.97
2022-08-30T00:01:51.952Z,101307.47
2022-08-30T00:02:13.757Z,101307.34
2022-08-30T00:02:35.945Z,101304.78
2022-08-30T00:02:58.106Z,101307.59
2022-08-30T00:03:22.145Z,101305.97
2022-08-30T00:03:46.285Z,101309.69
2022-08-30T00:04:08.254Z,101305.34
2022-08-30T00:04:29.931Z,101304.25
2022-08-30T00:04:54.084Z,101304.25
2022-08-30T00:05:16.931Z,101307.94
2022-08-30T00:05:39.603Z,101306.22
2022-08-30T00:06:01.718Z,101307.94
2022-08-30T00:06:27.006Z,101304.25
2022-08-30T00:06:48.828Z,101310.78
2022-08-30T00:07:10.526Z,101307.94
2022-08-30T00:07:32.607Z,101307.84
2022-08-30T00:07:55.375Z,101307.94
2022-08-30T00:08:17.194Z,101311.63
2022-08-30T00:08:40.912Z,101313.59
2022-08-30T00:09:03.574Z,101307.19
2022-08-30T00:09:25.245Z,101311.88
2022-08-30T00:09:46.913Z,101314.72
2022-08-30T00:10:10.484Z,101313.72
2022-08-30T00:10:32.151Z,101316.78
2022-08-30T00:10:56.853Z,101314.09
2022-08-30T00:11:21.615Z,101310.50
2022-08-30T00:11:43.427Z,101319.00
2022-08-30T00:12:05.353Z,101312.59
2022-08-30T00:12:28.414Z,101311.59
2022-08-30T00:12:50.112Z,101311.47
2022-08-30T00:13:13.316Z,101315.16
2022-08-30T00:13:35.931Z,101318.75
2022-08-30T00:13:58.164Z,101310.97
2022-08-30T00:14:20.377Z,101311.59
2022-08-30T00:14:41.979Z,101315.31
2022-08-30T00:15:07.063Z,101309.88
2022-08-30T00:15:31.013Z,101309.88
2022-08-30T00:15:53.300Z,101320.59
2022-08-30T00:16:15.626Z,101314.44
2022-08-30T00:16:38.447Z,101310.00
2022-08-30T00:17:00.175Z,101318.84
2022-08-30T00:17:21.864Z,101317.16
2022-08-30T00:17:44.112Z,101317.25
2022-08-30T00:18:06.888Z,101310.09
2022-08-30T00:18:28.650Z,101311.94
2022-08-30T00:18:51.259Z,101319.97
2022-08-30T00:19:13.806Z,101319.09
2022-08-30T00:19:36.445Z,101310.34
2022-08-30T00:19:58.209Z,101307.38
2022-08-30T00:20:22.293Z,101318.22
2022-08-30T00:20:45.688Z,101313.94
2022-08-30T00:21:08.798Z,101313.06
2022-08-30T00:21:32.721Z,101299.50
2022-08-30T00:21:54.370Z,101314.78
2022-08-30T00:22:16.091Z,101315.63
2022-08-30T00:22:39.485Z,101311.31
2022-08-30T00:23:01.843Z,101314.91
2022-08-30T00:23:23.555Z,101308.59
2022-08-30T00:23:45.564Z,101315.00
2022-08-30T00:24:09.038Z,101309.59
2022-08-30T00:24:30.756Z,101313.28
2022-08-30T00:24:52.401Z,101310.56
2022-08-30T00:25:15.584Z,101307.22
2022-08-30T00:25:37.504Z,101307.22
2022-08-30T00:26:00.190Z,101307.84
2022-08-30T00:26:22.148Z,101317.00
2022-08-30T00:26:43.866Z,101311.78
2022-08-30T00:27:05.593Z,101313.50
2022-08-30T00:27:27.410Z,101310.81
2022-08-30T00:27:50.098Z,101313.75
2022-08-30T00:28:12.442Z,101312.03
2022-08-30T00:28:36.179Z,101310.19
2022-08-30T00:28:58.753Z,101310.28
2022-08-30T00:29:21.497Z,101313.97
2022-08-30T00:29:43.190Z,101313.97
2022-08-30T00:30:07.015Z,101322.22
2022-08-30T00:30:28.724Z,101315.81
2022-08-30T00:30:51.540Z,101320.47
2022-08-30T00:31:15.137Z,101319.59
2022-08-30T00:31:37.286Z,101307.28
2022-08-30T00:31:58.934Z,101311.47
2022-08-30T00:32:21.979Z,101318.75
2022-08-30T00:32:44.044Z,101309.97
2022-08-30T00:33:06.057Z,101318.75
2022-08-30T00:33:28.713Z,101310.84
2022-08-30T00:33:51.452Z,101307.91
2022-08-30T00:34:13.219Z,101319.59
2022-08-30T00:34:34.997Z,101319.59
2022-08-30T00:34:56.671Z,101318.63
2022-08-30T00:35:20.505Z,101313.97
2022-08-30T00:35:44.091Z,101319.41
2022-08-30T00:36:06.084Z,101316.69
2022-08-30T00:36:28.127Z,101317.75
2022-08-30T00:36:51.125Z,101320.47
2022-08-30T00:37:13.824Z,101321.44
2022-08-30T00:37:35.652Z,101314.28
2022-08-30T00:37:57.985Z,101317.09
2022-08-30T00:38:19.732Z,101312.69
2022-08-30T00:38:42.399Z,101316.38
2022-08-30T00:39:04.419Z,101312.91
2022-08-30T00:39:26.856Z,101318.31
2022-08-30T00:39:48.873Z,101299.94
2022-08-30T00:40:12.264Z,101313.78
2022-08-30T00:40:34.634Z,101316.59
2022-08-30T00:40:56.423Z,101311.31
2022-08-30T00:41:19.082Z,101318.56
2022-08-30T00:41:40.800Z,101312.28
2022-08-30T00:42:02.456Z,101314.00
2022-08-30T00:42:24.417Z,101310.34
2022-08-30T00:42:50.628Z,101321.03
2022-08-30T00:43:18.065Z,101318.31
2022-08-30T00:43:41.114Z,101316.47
2022-08-30T00:44:03.444Z,101317.47
2022-08-30T00:44:26.091Z,101315.63
2022-08-30T00:44:48.337Z,101317.59
2022-08-30T00:45:12.692Z,101313.16
2022-08-30T00:45:36.951Z,101313.16
2022-08-30T00:46:39.609Z,101310.44
2022-08-30T00:47:01.658Z,101306.00
2022-08-30T00:47:23.306Z,101312.19
2022-08-30T00:47:45.488Z,101314.00
2022-08-30T00:48:09.207Z,101311.41
2022-08-30T00:48:31.257Z,101304.25
2022-08-30T00:48:53.474Z,101319.28
2022-08-30T00:49:15.367Z,101314.75
2022-08-30T00:49:42.612Z,101311.06
2022-08-30T00:50:08.337Z,101306.00
2022-08-30T00:50:35.551Z,101310.44
2022-08-30T00:51:00.964Z,101315.97
2022-08-30T00:51:25.718Z,101314.22
2022-08-30T00:51:48.085Z,101307.44
2022-08-30T00:52:12.521Z,101313.59
2022-08-30T00:52:35.403Z,101306.69
2022-08-30T00:53:02.076Z,101314.47
2022-08-30T00:53:27.582Z,101318.03
2022-08-30T00:53:54.767Z,101316.22
2022-08-30T00:54:18.409Z,101316.31
2022-08-30T00:54:44.547Z,101319.88
2022-08-30T00:55:06.939Z,101309.28
2022-08-30T00:55:29.745Z,101319.66
2022-08-30T00:55:52.485Z,101318.78
2022-08-30T00:56:15.404Z,101325.06
2022-08-30T00:56:37.216Z,101317.94
2022-08-30T00:56:59.380Z,101314.38
2022-08-30T00:57:21.271Z,101321.50
2022-08-30T00:57:45.461Z,101316.22
2022-08-30T00:58:10.924Z,101320.66
2022-08-30T00:58:37.079Z,101317.06
2022-08-30T00:59:02.779Z,101315.22
2022-08-30T00:59:26.223Z,101318.78
2022-08-30T00:59:49.689Z,101325.94
2022-08-30T01:00:14.187Z,101319.66
2022-08-30T01:00:36.375Z,101315.84
2022-08-30T01:01:01.319Z,101315.34
2022-08-30T01:01:23.673Z,101319.66
2022-08-30T01:01:46.118Z,101314.22
2022-08-30T01:02:07.954Z,101318.66
2022-08-30T01:02:33.393Z,101321.38
2022-08-30T01:02:55.981Z,101315.34
2022-08-30T01:03:17.871Z,101312.53
2022-08-30T01:03:41.207Z,101320.66
2022-08-30T01:04:06.798Z,101311.75
2022-08-30T01:04:29.429Z,101321.72
2022-08-30T01:04:51.791Z,101317.19
2022-08-30T01:05:16.084Z,101316.56
2022-08-30T01:05:40.000Z,101312.09
2022-08-30T01:06:03.562Z,101308.41
2022-08-30T01:06:26.079Z,101321.00
2022-08-30T01:06:54.605Z,101314.81
2022-08-30T01:07:18.699Z,101327.25
2022-08-30T01:07:41.620Z,101323.72
2022-08-30T01:08:03.578Z,101316.91
2022-08-30T01:08:25.631Z,101317.88
2022-08-30T01:08:49.127Z,101318.84
2022-08-30T01:09:13.907Z,101322.41
2022-08-30T01:09:36.344Z,101321.66
2022-08-30T01:09:58.111Z,101327.59
2022-08-30T01:10:21.395Z,101323.28
2022-08-30T01:10:43.977Z,101323.19
2022-08-30T01:11:06.607Z,101322.41
2022-08-30T01:11:29.188Z,101311.06
2022-08-30T01:11:51.018Z,101313.75
2022-08-30T01:12:14.152Z,101318.75
2022-08-30T01:12:40.088Z,101323.28
2022-08-30T01:13:02.059Z,101317.97
2022-08-30T01:13:25.408Z,101319.94
2022-08-30T01:13:49.507Z,101319.81
2022-08-30T01:14:12.530Z,101319.72
2022-08-30T01:14:34.323Z,101325.38
2022-08-30T01:14:57.368Z,101320.91
2022-08-30T01:15:19.894Z,101324.50
2022-08-30T01:15:44.074Z,101312.13
2022-08-30T01:16:08.060Z,101323.50
2022-08-30T01:16:32.289Z,101322.66
2022-08-30T01:16:57.587Z,101328.91
2022-08-30T01:17:21.975Z,101325.38
2022-08-30T01:17:47.651Z,101327.94
2022-08-30T01:18:11.456Z,101324.50
2022-08-30T01:18:35.683Z,101327.22
2022-08-30T01:18:59.135Z,101326.53
2022-08-30T01:19:32.805Z,101323.09
2022-08-30T01:19:57.504Z,101324.94
2022-08-30T01:20:26.586Z,101331.22
2022-08-30T01:20:54.238Z,101330.25
2022-08-30T01:21:22.430Z,101329.25
2022-08-30T01:21:48.410Z,101321.38
2022-08-30T01:22:23.129Z,101330.25
2022-08-30T01:22:57.833Z,101331.09
2022-08-30T01:23:21.864Z,101324.06
2022-08-30T01:23:46.453Z,101329.25
2022-08-30T01:24:10.543Z,101333.94
2022-08-30T01:24:33.278Z,101321.25
2022-08-30T01:24:57.975Z,101333.81
2022-08-30T01:25:22.348Z,101329.59
2022-08-30T01:25:48.501Z,101331.22
2022-08-30T01:26:11.535Z,101332.22
2022-08-30T01:26:35.902Z,101334.03
2022-08-30T01:26:57.829Z,101336.75
2022-08-30T01:27:20.567Z,101329.50
2022-08-30T01:27:53.473Z,101327.75
2022-08-30T01:28:20.036Z,101315.66
2022-08-30T01:28:42.977Z,101326.78
2022-08-30T01:29:09.411Z,101326.03
2022-08-30T01:29:31.286Z,101328.88
2022-08-30T01:29:53.385Z,101322.59
2022-08-30T01:30:15.012Z,101323.31
2022-08-30T01:30:40.138Z,101318.91
2022-08-30T01:31:02.167Z,101323.31
2022-08-30T01:31:24.064Z,101326.03
2022-08-30T01:31:46.336Z,101332.44
2022-08-30T01:32:19.704Z,101325.19
2022-08-30T01:32:44.924Z,101323.22
2022-08-30T01:33:07.855Z,101336.66
2022-08-30T01:33:30.587Z,101334.03
2022-08-30T01:33:52.286Z,101331.56
2022-08-30T01:34:13.959Z,101329.59
2022-08-30T01:34:35.608Z,101331.34
2022-08-30T01:34:59.023Z,101329.59
2022-08-30T01:35:20.659Z,101336.84
2022-08-30T01:35:47.619Z,101328.72
2022-08-30T01:36:12.284Z,101329.50
2022-08-30T01:36:35.317Z,101325.19
2022-08-30T01:36:57.908Z,101329.72
2022-08-30T01:37:23.661Z,101335.00
2022-08-30T01:37:46.317Z,101332.31
2022-08-30T01:38:10.044Z,101333.31
2022-08-30T01:38:37.682Z,101331.44
2022-08-30T01:38:59.384Z,101334.91
2022-08-30T01:39:21.510Z,101329.50
2022-08-30T01:39:45.658Z,101331.22
2022-08-30T01:40:09.315Z,101343.03
2022-08-30T01:40:32.021Z,101329.50
2022-08-30T01:40:57.574Z,101333.19
2022-08-30T01:41:22.569Z,101328.88
2022-08-30T01:41:44.335Z,101334.03
2022-08-30T01:42:06.338Z,101333.19
2022-08-30T01:42:29.369Z,101331.22
2022-08-30T01:42:51.329Z,101333.94
2022-08-30T01:43:14.794Z,101333.94
2022-08-30T01:43:36.755Z,101327.75
2022-08-30T01:44:02.878Z,101330.38
2022-08-30T01:44:24.518Z,101329.59
2022-08-30T01:44:47.108Z,101326.88
2022-08-30T01:45:09.866Z,101333.06
2022-08-30T01:45:31.520Z,101330.38
2022-08-30T01:45:53.254Z,101335.78
2022-08-30T01:46:18.255Z,101324.06
2022-08-30T01:46:42.660Z,101332.22
2022-08-30T01:47:04.606Z,101319.34
2022-08-30T01:47:27.320Z,101336.84
2022-08-30T01:47:50.572Z,101329.84
2022-08-30T01:48:13.721Z,101324.31
2022-08-30T01:48:35.450Z,101328.72
2022-08-30T01:48:58.409Z,101333.31
2022-08-30T01:49:26.030Z,101334.16
2022-08-30T01:49:51.343Z,101329.50
2022-08-30T01:50:13.236Z,101331.22
2022-08-30T01:50:35.334Z,101329.41
2022-08-30T01:50:59.105Z,101331.22
2022-08-30T01:51:24.770Z,101314.13
2022-08-30T01:51:46.792Z,101333.19
2022-08-30T01:52:08.809Z,101334.16
2022-08-30T01:52:30.488Z,101333.19
2022-08-30T01:52:53.183Z,101324.41
2022-08-30T01:53:16.324Z,101335.78
2022-08-30T01:53:38.511Z,101334.03
2022-08-30T01:54:00.777Z,101331.22
2022-08-30T01:54:23.469Z,101341.19
2022-08-30T01:54:54.810Z,101332.22
2022-08-30T01:55:16.514Z,101333.19
2022-08-30T01:55:39.012Z,101337.63
2022-08-30T01:56:01.637Z,101344.78
2022-08-30T01:56:24.164Z,101332.97
2022-08-30T01:56:45.845Z,101341.09
2022-08-30T01:57:08.469Z,101330.59
2022-08-30T01:57:30.352Z,101331.97
2022-08-30T01:57:52.979Z,101341.84
2022-08-30T01:58:14.693Z,101345.41
2022-08-30T01:58:38.039Z,101335.44
2022-08-30T01:59:02.813Z,101334.56
2022-08-30T01:59:26.276Z,101335.44
2022-08-30T01:59:50.133Z,101326.88
2022-08-30T02:00:12.699Z,101338.16
2022-08-30T02:00:35.324Z,101334.56
2022-08-30T02:00:57.664Z,101334.47
2022-08-30T02:01:24.391Z,101339.13
2022-08-30T02:01:46.419Z,101342.59
2022-08-30T02:02:09.468Z,101338.16
2022-08-30T02:02:31.265Z,101329.50
2022-08-30T02:02:53.021Z,101333.50
2022-08-30T02:03:14.725Z,101330.03
2022-08-30T02:03:37.257Z,101334.47
2022-08-30T02:04:00.035Z,101336.22
2022-08-30T02:04:21.806Z,101337.19
2022-08-30T02:04:44.165Z,101331.00
2022-08-30T02:05:06.901Z,101330.25
2022-08-30T02:05:29.880Z,101331.97
2022-08-30T02:05:51.806Z,101334.56
2022-08-30T02:06:15.992Z,101331.88
2022-08-30T02:06:38.580Z,101325.19
2022-08-30T02:07:00.390Z,101334.69
2022-08-30T02:07:23.947Z,101333.69
2022-08-30T02:07:45.588Z,101327.31
2022-08-30T02:08:07.601Z,101328.28
2022-08-30T02:08:30.631Z,101335.34
2022-08-30T02:08:57.139Z,101332.63
2022-08-30T02:09:19.076Z,101323.84
2022-08-30T02:09:40.889Z,101329.06
2022-08-30T02:10:02.632Z,101313.34
2022-08-30T02:10:25.910Z,101335.44
2022-08-30T02:10:47.713Z,101332.63
2022-08-30T02:11:10.998Z,101337.28
2022-08-30T02:11:32.780Z,101331.00
2022-08-30T02:11:55.462Z,101330.13
2022-08-30T02:12:17.949Z,101320.59
2022-08-30T02:12:39.547Z,101337.28
2022-08-30T02:13:03.029Z,101335.69
2022-08-30T02:13:24.940Z,101332.97
2022-08-30T02:13:46.857Z,101335.69
2022-08-30T02:14:08.506Z,101329.25
2022-08-30T02:14:31.612Z,101334.69
2022-08-30T02:14:54.234Z,101332.09
2022-08-30T02:15:16.322Z,101336.66
2022-08-30T02:15:41.696Z,101338.50
2022-08-30T02:16:03.680Z,101334.81
2022-08-30T02:16:27.508Z,101333.19
2022-08-30T02:16:49.311Z,101329.50
2022-08-30T02:17:14.119Z,101332.31
2022-08-30T02:17:36.032Z,101328.63
2022-08-30T02:17:58.627Z,101334.03
2022-08-30T02:18:23.746Z,101344.88
2022-08-30T02:18:45.791Z,101340.44
2022-08-30T02:19:07.774Z,101335.78
2022-08-30T02:19:30.759Z,101340.44
2022-08-30T02:19:52.537Z,101334.91
2022-08-30T02:20:14.220Z,101337.53
2022-08-30T02:20:38.303Z,101334.81
2022-08-30T02:21:00.936Z,101338.38
2022-08-30T02:21:23.226Z,101332.09
2022-08-30T02:21:44.920Z,101337.19
2022-08-30T02:22:06.884Z,101329.06
2022-08-30T02:22:29.640Z,101337.69
2022-08-30T02:22:51.330Z,101331.75
2022-08-30T02:23:13.185Z,101337.69
2022-08-30T02:23:36.395Z,101325.81
2022-08-30T02:23:59.224Z,101332.50
2022-08-30T02:24:20.873Z,101336.94
2022-08-30T02:24:42.553Z,101335.97
2022-08-30T02:25:04.961Z,101339.53
2022-08-30T02:25:28.109Z,101330.53
2022-08-30T02:25:49.796Z,101343.13
2022-08-30T02:26:12.768Z,101332.91
2022-08-30T02:26:36.547Z,101337.47
2022-08-30T02:26:59.324Z,101333.16
2022-08-30T02:27:21.053Z,101330.31
2022-08-30T02:27:42.730Z,101335.50
2022-08-30T02:28:05.255Z,101336.25
2022-08-30T02:28:29.087Z,101333.53
2022-08-30T02:28:52.127Z,101334.41
2022-08-30T02:29:13.801Z,101334.31
2022-08-30T02:29:35.625Z,101333.34
2022-08-30T02:29:57.344Z,101344.03
2022-08-30T02:30:20.185Z,101340.34
2022-08-30T02:30:42.647Z,101334.81
2022-08-30T02:31:04.527Z,101336.66
2022-08-30T02:31:26.680Z,101318.16
2022-08-30T02:31:49.872Z,101331.16
2022-08-30T02:32:11.572Z,101340.00
2022-08-30T02:32:33.289Z,101336.44
2022-08-30T02:32:55.887Z,101335.56
2022-08-30T02:33:17.774Z,101321.84
2022-08-30T02:33:40.495Z,101340.13
2022-08-30T02:34:02.304Z,101335.81
2022-08-30T02:34:24.014Z,101331.34
2022-08-30T02:34:47.213Z,101313.84
2022-08-30T02:35:09.448Z,101334.06
2022-08-30T02:35:31.455Z,101332.13
2022-08-30T02:35:53.132Z,101329.63
2022-08-30T02:36:16.000Z,101337.53
2022-08-30T02:36:40.674Z,101328.78
2022-08-30T02:37:02.465Z,101332.22
2022-08-30T02:37:24.101Z,101327.91
2022-08-30T02:37:46.790Z,101332.31
2022-08-30T02:38:09.763Z,101329.00
2022-08-30T02:38:31.401Z,101332.31
2022-08-30T02:38:54.413Z,101319.03
2022-08-30T02:39:17.403Z,101325.81
2022-08-30T02:39:39.087Z,101320.41
2022-08-30T02:40:00.803Z,101330.28
2022-08-30T02:40:22.804Z,101324.00
2022-08-30T02:40:45.622Z,101330.28
2022-08-30T02:41:07.660Z,101328.53
2022-08-30T02:41:29.352Z,101321.50
2022-08-30T02:41:51.029Z,101327.66
2022-08-30T02:42:12.866Z,101323.13
2022-08-30T02:42:36.393Z,101326.19
2022-08-30T02:42:58.463Z,101319.66
2022-08-30T02:43:20.258Z,101322.25
2022-08-30T02:43:42.064Z,101317.81
2022-08-30T02:44:03.992Z,101318.03
2022-08-30T02:44:26.649Z,101317.19
2022-08-30T02:44:48.317Z,101321.97
2022-08-30T02:45:10.745Z,101314.81
2022-08-30T02:45:32.425Z,101325.53
2022-08-30T02:45:54.424Z,101313.84
2022-08-30T02:46:17.917Z,101317.53
2022-08-30T02:46:39.887Z,101327.38
2022-08-30T02:47:01.645Z,101324.88
2022-08-30T02:47:23.320Z,101315.06
2022-08-30T02:47:47.109Z,101315.25
2022-08-30T02:48:09.696Z,101323.50
2022-08-30T02:48:31.354Z,101324.50
2022-08-30T02:48:53.101Z,101320.78
2022-08-30T02:49:57.432Z,101322.75
2022-08-30T02:50:20.036Z,101319.94
2022-08-30T02:50:43.003Z,101314.00
2022-08-30T02:51:06.591Z,101312.28
2022-08-30T02:51:31.171Z,101321.03
2022-08-30T02:51:52.974Z,101314.63
2022-08-30T02:52:15.687Z,101317.34
2022-08-30T02:52:37.866Z,101314.63
2022-08-30T02:52:59.515Z,101319.94
2022-08-30T02:53:22.439Z,101317.44
2022-08-30T02:53:45.688Z,101318.22
2022-08-30T02:54:09.680Z,101316.47
2022-08-30T02:54:33.157Z,101317.25
2022-08-30T02:54:55.183Z,101317.97
2022-08-30T02:55:17.640Z,101315.25
2022-08-30T02:55:39.511Z,101306.41
2022-08-30T02:56:02.232Z,101314.28
2022-08-30T02:56:23.900Z,101306.41
2022-08-30T02:56:45.824Z,101315.59
2022-08-30T02:57:08.732Z,101308.69
2022-08-30T02:57:43.570Z,101305.63
2022-08-30T02:58:05.793Z,101301.97
2022-08-30T02:58:27.471Z,101294.81
2022-08-30T02:58:52.217Z,101311.06
2022-08-30T02:59:15.055Z,101310.09
2022-08-30T02:59:41.603Z,101310.09
2022-08-30T03:00:06.052Z,101307.13
2022-08-30T03:00:27.665Z,101308.34
2022-08-30T03:00:50.412Z,101311.94
2022-08-30T03:01:15.857Z,101306.50
2022-08-30T03:01:39.090Z,101306.41
2022-08-30T03:02:00.953Z,101309.84
2022-08-30T03:02:23.735Z,101312.56
2022-08-30T03:02:45.489Z,101301.00
2022-08-30T03:03:07.626Z,101307.38
2022-08-30T03:03:29.543Z,101310.81
2022-08-30T03:03:51.421Z,101309.22
2022-08-30T03:04:14.624Z,101308.25
2022-08-30T03:04:36.592Z,101312.56
2022-08-30T03:04:58.714Z,101294.91
2022-08-30T03:05:20.536Z,101307.38
2022-08-30T03:05:43.361Z,101305.41
2022-08-30T03:06:05.340Z,101301.81
2022-08-30T03:06:26.982Z,101311.94
2022-08-30T03:06:48.599Z,101311.06
2022-08-30T03:07:12.394Z,101307.47
2022-08-30T03:07:34.312Z,101315.59
2022-08-30T03:07:55.992Z,101314.00
2022-08-30T03:08:17.707Z,101305.00
2022-08-30T03:08:40.747Z,101312.13
2022-08-30T03:09:03.865Z,101301.44
2022-08-30T03:09:26.916Z,101311.31
2022-08-30T03:09:48.508Z,101304.25
2022-08-30T03:10:12.004Z,101299.19
2022-08-30T03:10:36.361Z,101307.19
2022-08-30T03:10:58.007Z,101303.72
2022-08-30T03:11:22.323Z,101310.78
2022-08-30T03:11:46.372Z,101317.06
2022-08-30T03:12:09.220Z,101309.78
2022-08-30T03:12:32.457Z,101307.06
2022-08-30T03:12:57.750Z,101307.19
2022-08-30T03:13:19.787Z,101306.31
2022-08-30T03:13:41.882Z,101315.31
2022-08-30T03:14:04.119Z,101313.47
2022-08-30T03:14:28.092Z,101308.78
2022-08-30T03:14:49.744Z,101299.19
2022-08-30T03:15:13.089Z,101306.44
2022-08-30T03:15:35.427Z,101310.97
2022-08-30T03:15:57.578Z,101307.19
2022-08-30T03:16:21.730Z,101305.34
2022-08-30T03:16:43.509Z,101309.13
2022-08-30T03:17:06.903Z,101300.72
2022-08-30T03:17:34.894Z,101300.38
2022-08-30T03:17:57.683Z,101304.84
2022-08-30T03:18:20.154Z,101312.19
2022-08-30T03:18:43.103Z,101312.19
2022-08-30T03:19:04.886Z,101306.88
2022-08-30T03:19:27.571Z,101306.00
2022-08-30T03:19:49.297Z,101302.34
2022-08-30T03:20:11.941Z,101306.00
2022-08-30T03:20:35.009Z,101305.03
2022-08-30T03:20:57.680Z,101308.72
2022-08-30T03:21:19.338Z,101303.44
2022-08-30T03:21:40.995Z,101305.81
2022-08-30T03:22:03.451Z,101303.97
2022-08-30T03:22:26.078Z,101304.84
2022-08-30T03:22:47.808Z,101307.41
2022-08-30T03:23:09.513Z,101304.69
2022-08-30T03:23:31.432Z,101307.41
2022-08-30T03:23:53.061Z,101312.72
2022-08-30T03:24:15.728Z,101303.63
2022-08-30T03:24:40.308Z,101313.34
2022-08-30T03:25:02.265Z,101310.00
2022-08-30T03:25:24.158Z,101310.97
2022-08-30T03:25:45.796Z,101313.69
2022-08-30T03:26:08.497Z,101306.66
2022-08-30T03:26:30.201Z,101301.69
2022-08-30T03:26:52.025Z,101307.53
2022-08-30T03:27:13.802Z,101306.78
2022-08-30T03:27:36.660Z,101309.47
2022-08-30T03:27:58.278Z,101304.84
2022-08-30T03:28:19.985Z,101301.34
2022-08-30T03:28:42.346Z,101307.66
2022-08-30T03:29:05.045Z,101306.00
2022-08-30T03:29:26.764Z,101310.44
2022-08-30T03:29:48.467Z,101309.59
2022-08-30T03:30:12.050Z,101305.91
2022-08-30T03:30:35.467Z,101310.34
2022-08-30T03:30:57.244Z,101316.63
2022-08-30T03:31:18.906Z,101305.81
2022-08-30T03:31:52.445Z,101311.22
2022-08-30T03:32:15.531Z,101307.66
2022-08-30T03:32:37.319Z,101310.25
2022-08-30T03:32:59.505Z,101299.63
2022-08-30T03:33:22.597Z,101312.72
2022-08-30T03:33:45.337Z,101306.53
2022-08-30T03:34:07.022Z,101305.69
2022-08-30T03:34:28.757Z,101310.25
2022-08-30T03:34:50.609Z,101314.66
2022-08-30T03:35:14.622Z,101317.38
2022-08-30T03:35:36.538Z,101305.56
2022-08-30T03:35:58.241Z,101311.13
2022-08-30T03:36:21.310Z,101317.38
2022-08-30T03:36:42.983Z,101311.44
2022-08-30T03:37:04.692Z,101302.03
2022-08-30T03:37:27.642Z,101310.91
2022-08-30T03:37:56.210Z,101308.19
2022-08-30T03:38:18.364Z,101311.13
2022-08-30T03:38:40.204Z,101308.19
2022-08-30T03:39:01.923Z,101306.34
2022-08-30T03:39:25.575Z,101296.88
2022-08-30T03:39:48.737Z,101309.06
2022-08-30T03:40:12.521Z,101307.47
2022-08-30T03:40:35.914Z,101303.00
2022-08-30T03:40:58.644Z,101305.72
2022-08-30T03:41:21.516Z,101305.72
2022-08-30T03:41:43.435Z,101312.88
2022-08-30T03:42:05.607Z,101307.56
2022-08-30T03:42:27.292Z,101309.41
2022-08-30T03:42:50.289Z,101305.81
2022-08-30T03:43:12.024Z,101309.63
2022-08-30T03:43:34.738Z,101309.53
2022-08-30T03:44:00.041Z,101307.69
2022-08-30T03:44:24.474Z,101306.81
2022-08-30T03:44:47.306Z,101313.09
2022-08-30T03:45:09.666Z,101305.72
2022-08-30T03:45:31.378Z,101309.28
2022-08-30T03:45:54.355Z,101306.81
2022-08-30T03:46:16.420Z,101311.22
2022-08-30T03:46:38.210Z,101302.28
2022-08-30T03:46:59.946Z,101314.72
2022-08-30T03:47:21.637Z,101303.00
2022-08-30T03:47:45.012Z,101305.63
2022-08-30T03:48:06.864Z,101308.31
2022-08-30T03:48:28.946Z,101307.47
2022-08-30T03:48:52.086Z,101306.59
2022-08-30T03:49:14.957Z,101304.75
2022-08-30T03:49:36.633Z,101305.97
2022-08-30T03:49:58.335Z,101308.66
2022-08-30T03:50:20.001Z,101307.69
2022-08-30T03:50:42.679Z,101309.53
2022-08-30T03:51:05.065Z,101305.16
2022-08-30T03:51:27.831Z,101305.81
2022-08-30T03:51:49.520Z,101302.88
2022-08-30T03:52:12.171Z,101302.28
2022-08-30T03:52:33.959Z,101304.75
2022-08-30T03:52:55.799Z,101306.59
2022-08-30T03:53:17.655Z,101303.00
2022-08-30T03:53:40.440Z,101296.63
2022-08-30T03:54:02.772Z,101303.00
2022-08-30T03:54:24.909Z,101299.44
2022-08-30T03:54:48.159Z,101290.69
2022-08-30T03:55:10.787Z,101301.81
2022-08-30T03:55:32.576Z,101291.31
2022-08-30T03:55:54.894Z,101301.16
2022-08-30T03:56:17.805Z,101304.13
2022-08-30T03:56:41.047Z,101276.81
2022-08-30T03:57:02.715Z,101292.41
2022-08-30T03:57:24.723Z,101290.69
2022-08-30T03:57:46.746Z,101292.53
2022-08-30T03:58:09.665Z,101290.75
2022-08-30T03:58:31.473Z,101292.81
2022-08-30T03:58:53.309Z,101291.97
2022-08-30T03:59:15.510Z,101301.19
2022-08-30T03:59:37.185Z,101296.59
2022-08-30T03:59:59.849Z,101299.22
2022-08-30T04:00:21.801Z,101282.53
2022-08-30T04:00:43.555Z,101290.22
2022-08-30T04:01:05.258Z,101299.22
2022-08-30T04:01:28.132Z,101297.47
2022-08-30T04:01:50.002Z,101288.63
2022-08-30T04:02:11.720Z,101294.03
2022-08-30T04:02:34.517Z,101303.13
2022-08-30T04:02:56.281Z,101303.38
2022-08-30T04:03:18.483Z,101303.38
2022-08-30T04:03:40.424Z,101300.66
2022-08-30T04:04:03.609Z,101299.88
2022-08-30T04:04:25.439Z,101302.59
2022-08-30T04:04:47.190Z,101300.00
2022-08-30T04:05:10.043Z,101297.28
2022-08-30T04:05:32.799Z,101299.25
2022-08-30T04:05:55.600Z,101297.50
2022-08-30T04:06:17.216Z,101297.50
2022-08-30T04:06:38.911Z,101299.59
2022-08-30T04:07:00.680Z,101301.44
2022-08-30T04:07:23.317Z,101305.09
2022-08-30T04:07:45.817Z,101301.44
2022-08-30T04:08:07.570Z,101293.41
2022-08-30T04:08:29.367Z,101305.00
2022-08-30T04:08:52.234Z,101307.72
2022-08-30T04:09:13.925Z,101302.28
2022-08-30T04:09:35.655Z,101309.41
2022-08-30T04:10:00.765Z,101301.44
2022-08-30T04:10:22.902Z,101279.56
2022-08-30T04:10:44.553Z,101303.16
2022-08-30T04:11:07.168Z,101303.03
2022-08-30T04:11:29.895Z,101307.56
2022-08-30T04:11:51.653Z,101306.59
2022-08-30T04:12:13.620Z,101307.56
2022-08-30T04:12:39.994Z,101304.00
2022-08-30T04:13:01.687Z,101302.28
2022-08-30T04:13:25.264Z,101291.56
2022-08-30T04:13:49.372Z,101299.69
2022-08-30T04:14:11.013Z,101308.56
2022-08-30T04:14:33.950Z,101304.88
2022-08-30T04:14:55.762Z,101305.75
2022-08-30T04:15:19.172Z,101302.06
2022-08-30T04:15:41.884Z,101311.06
2022-08-30T04:16:04.107Z,101301.44
2022-08-30T04:16:26.384Z,101311.28
2022-08-30T04:16:48.137Z,101301.44
2022-08-30T04:17:10.784Z,101309.53
2022-08-30T04:17:32.560Z,101303.38
2022-08-30T04:17:54.904Z,101312.44
2022-08-30T04:18:16.638Z,101313.47
2022-08-30T04:18:39.324Z,101312.59
2022-08-30T04:19:01.078Z,101309.97
2022-08-30T04:19:22.723Z,101318.09
2022-08-30T04:19:44.405Z,101306.84
2022-08-30T04:20:07.492Z,101307.38
2022-08-30T04:20:30.272Z,101313.56
2022-08-30T04:20:52.152Z,101308.56
2022-08-30T04:21:14.308Z,101308.47
2022-08-30T04:21:36.872Z,101312.25
2022-08-30T04:22:05.956Z,101301.56
2022-08-30T04:22:27.629Z,101307.69
2022-08-30T04:22:49.932Z,101309.53
2022-08-30T04:23:12.377Z,101309.53
2022-08-30T04:23:35.161Z,101304.91